createdAt,value
2017-01-10T00:00:51.953Z,99841
2017-01-10T00:01:52.104Z,99840
2017-01-10T00:02:52.739Z,99834
2017-01-10T00:03:52.725Z,99841
2017-01-10T00:04:52.244Z,99838
2017-01-10T00:05:52.250Z,99829
2017-01-10T00:06:52.850Z,99828
2017-01-10T00:07:52.915Z,99833
2017-01-10T00:08:52.942Z,99828
2017-01-10T00:09:52.463Z,99834
2017-01-10T00:10:53.584Z,99823
2017-01-10T00:11:53.063Z,99830
2017-01-10T00:12:53.713Z,99828
2017-01-10T00:13:52.533Z,99822
2017-01-10T00:14:53.172Z,99825
2017-01-10T00:15:53.163Z,99826
2017-01-10T00:16:53.295Z,99818
2017-01-10T00:17:52.745Z,99824
2017-01-10T00:18:53.363Z,99817
2017-01-10T00:19:52.884Z,99816
2017-01-10T00:20:53.435Z,99819
2017-01-10T00:21:53.471Z,99818
2017-01-10T00:22:52.999Z,99816
2017-01-10T00:23:53.121Z,99818
2017-01-10T00:24:53.098Z,99815
2017-01-10T00:25:53.119Z,99812
2017-01-10T00:26:53.759Z,99805
2017-01-10T00:27:53.811Z,99800
2017-01-10T00:28:53.386Z,99802
2017-01-10T00:29:53.420Z,99793
2017-01-10T00:30:53.468Z,99797
2017-01-10T00:31:54.040Z,99794
2017-01-10T00:32:53.518Z,99796
2017-01-10T00:33:53.588Z,99791
2017-01-10T00:34:54.262Z,99785
2017-01-10T00:35:54.378Z,99785
2017-01-10T00:36:53.897Z,99783
2017-01-10T00:37:54.002Z,99779
2017-01-10T00:38:54.605Z,99771
2017-01-10T00:39:54.642Z,99774
2017-01-10T00:40:54.719Z,99776
2017-01-10T00:41:54.258Z,99766
2017-01-10T00:42:54.884Z,99770
2017-01-10T00:43:55.440Z,99770
2017-01-10T00:44:54.923Z,99766
2017-01-10T00:45:54.439Z,99763
2017-01-10T00:46:55.028Z,99749
2017-01-10T00:47:54.511Z,99759
2017-01-10T00:48:54.577Z,99761
2017-01-10T00:49:54.659Z,99751
2017-01-10T00:50:54.675Z,99743
2017-01-10T00:51:55.244Z,99747
2017-01-10T00:52:54.788Z,99747
2017-01-10T00:53:55.440Z,99742
2017-01-10T00:54:54.975Z,99738
2017-01-10T00:55:54.998Z,99739
2017-01-10T00:56:55.573Z,99736
2017-01-10T00:57:55.117Z,99738
2017-01-10T00:58:55.712Z,99747
2017-01-10T00:59:55.721Z,99744
2017-01-10T01:00:55.230Z,99739
2017-01-10T01:01:55.830Z,99736
2017-01-10T01:02:55.407Z,99730
2017-01-10T01:03:55.916Z,99736
2017-01-10T01:04:55.462Z,99738
2017-01-10T01:05:56.019Z,99735
2017-01-10T01:06:56.073Z,99735
2017-01-10T01:07:55.552Z,99728
2017-01-10T01:08:55.611Z,99735
2017-01-10T01:09:56.170Z,99734
2017-01-10T01:10:56.209Z,99730
2017-01-10T01:11:55.735Z,99722
2017-01-10T01:12:56.276Z,99727
2017-01-10T01:13:56.385Z,99728
2017-01-10T01:14:56.341Z,99724
2017-01-10T01:15:55.896Z,99720
2017-01-10T01:16:55.915Z,99728
2017-01-10T01:17:55.915Z,99718
2017-01-10T01:18:56.553Z,99721
2017-01-10T01:19:56.076Z,99720
2017-01-10T01:20:56.632Z,99714
2017-01-10T01:21:56.146Z,99718
2017-01-10T01:22:56.729Z,99719
2017-01-10T01:23:56.798Z,99718
2017-01-10T01:24:56.314Z,99713
2017-01-10T01:25:56.956Z,99715
2017-01-10T01:26:56.485Z,99712
2017-01-10T01:27:56.492Z,99713
2017-01-10T01:28:56.526Z,99709
2017-01-10T01:29:56.642Z,99703
2017-01-10T01:30:57.205Z,99698
2017-01-10T01:31:57.182Z,99693
2017-01-10T01:32:57.821Z,99688
2017-01-10T01:33:56.745Z,99696
2017-01-10T01:34:58.066Z,99695
2017-01-10T01:35:56.803Z,99693
2017-01-10T01:36:56.820Z,99690
2017-01-10T01:37:57.497Z,99685
2017-01-10T01:38:56.879Z,99685
2017-01-10T01:39:56.927Z,99691
2017-01-10T01:40:57.517Z,99692
2017-01-10T01:41:57.086Z,99689
2017-01-10T01:42:57.672Z,99689
2017-01-10T01:43:57.199Z,99678
2017-01-10T01:44:57.837Z,99690
2017-01-10T01:45:57.355Z,99682
2017-01-10T01:46:57.425Z,99681
2017-01-10T01:47:57.492Z,99676
2017-01-10T01:48:57.573Z,99681
2017-01-10T01:49:58.168Z,99678
2017-01-10T01:50:57.688Z,99684
2017-01-10T01:51:57.896Z,99678
2017-01-10T01:52:57.922Z,99681
2017-01-10T01:53:57.914Z,99672
2017-01-10T01:54:57.926Z,99675
2017-01-10T01:55:58.474Z,99670
2017-01-10T02:05:09.481Z,99668
2017-01-10T02:06:09.516Z,99667
2017-01-10T02:07:09.014Z,99670
2017-01-10T02:08:09.097Z,99661
2017-01-10T02:09:09.681Z,99663
2017-01-10T02:10:09.159Z,99655
2017-01-10T02:11:09.851Z,99656
2017-01-10T02:12:09.373Z,99647
2017-01-10T02:13:09.930Z,99644
2017-01-10T02:14:10.032Z,99645
2017-01-10T02:15:10.008Z,99641
2017-01-10T02:16:09.581Z,99638
2017-01-10T02:17:10.151Z,99637
2017-01-10T02:18:09.659Z,99633
2017-01-10T02:19:10.308Z,99639
2017-01-10T02:20:09.876Z,99624
2017-01-10T02:21:10.418Z,99638
2017-01-10T02:22:10.034Z,99631
2017-01-10T02:23:10.628Z,99636
2017-01-10T02:24:10.131Z,99628
2017-01-10T02:25:12.007Z,99634
2017-01-10T02:26:10.710Z,99627
2017-01-10T02:27:10.259Z,99625
2017-01-10T02:28:10.301Z,99630
2017-01-10T02:29:10.279Z,99619
2017-01-10T02:30:10.872Z,99617
2017-01-10T02:31:10.346Z,99614
2017-01-10T02:32:10.354Z,99618
2017-01-10T02:33:10.419Z,99616
2017-01-10T02:34:11.077Z,99615
2017-01-10T02:35:11.096Z,99616
2017-01-10T02:36:10.614Z,99615
2017-01-10T02:37:10.646Z,99607
2017-01-10T02:38:10.695Z,99609
2017-01-10T02:39:11.249Z,99604
2017-01-10T02:40:10.824Z,99600
2017-01-10T02:41:11.386Z,99604
2017-01-10T02:42:11.398Z,99605
2017-01-10T02:43:10.937Z,99601
2017-01-10T02:44:11.479Z,99599
2017-01-10T02:45:11.591Z,99598
2017-01-10T02:46:11.127Z,99593
2017-01-10T02:47:11.656Z,99591
2017-01-10T02:48:11.756Z,99594
2017-01-10T02:49:11.799Z,99592
2017-01-10T02:50:11.851Z,99591
2017-01-10T02:51:11.933Z,99586
2017-01-10T02:52:12.010Z,99585
2017-01-10T02:53:12.000Z,99581
2017-01-10T02:54:12.087Z,99585
2017-01-10T02:55:11.586Z,99585
2017-01-10T02:56:12.162Z,99580
2017-01-10T02:57:11.842Z,99576
2017-01-10T02:58:12.361Z,99577
2017-01-10T02:59:11.915Z,99573
2017-01-10T03:00:12.402Z,99564
2017-01-10T03:01:11.874Z,99563
2017-01-10T03:02:11.958Z,99563
2017-01-10T03:03:12.536Z,99550
2017-01-10T03:04:12.030Z,99560
2017-01-10T03:05:12.116Z,99556
2017-01-10T03:06:13.328Z,99554
2017-01-10T03:07:12.255Z,99545
2017-01-10T03:08:12.276Z,99545
2017-01-10T03:09:12.307Z,99539
2017-01-10T03:10:12.971Z,99542
2017-01-10T03:11:13.013Z,99538
2017-01-10T03:12:12.414Z,99538
2017-01-10T03:13:12.497Z,99539
2017-01-10T03:14:13.783Z,99539
2017-01-10T03:15:12.691Z,99538
2017-01-10T03:16:12.660Z,99536
2017-01-10T03:17:13.309Z,99534
2017-01-10T03:18:13.369Z,99529
2017-01-10T03:19:12.956Z,99533
2017-01-10T03:20:12.988Z,99529
2017-01-10T03:21:13.597Z,99530
2017-01-10T03:22:13.623Z,99524
2017-01-10T03:23:13.680Z,99523
2017-01-10T03:24:13.666Z,99523
2017-01-10T03:25:13.772Z,99516
2017-01-10T03:26:13.227Z,99520
2017-01-10T03:27:13.320Z,99513
2017-01-10T03:28:13.835Z,99513
2017-01-10T03:29:13.882Z,99510
2017-01-10T03:30:13.895Z,99506
2017-01-10T03:31:14.686Z,99512
2017-01-10T03:32:14.011Z,99509
2017-01-10T03:33:13.607Z,99503
2017-01-10T03:34:14.141Z,99501
2017-01-10T03:35:13.671Z,99508
2017-01-10T03:36:14.208Z,99501
2017-01-10T03:37:13.854Z,99505
2017-01-10T03:38:14.371Z,99500
2017-01-10T03:39:14.460Z,99495
2017-01-10T03:40:14.589Z,99499
2017-01-10T03:41:14.669Z,99498
2017-01-10T03:42:14.157Z,99493
2017-01-10T03:43:14.145Z,99492
2017-01-10T03:44:14.309Z,99489
2017-01-10T03:45:14.900Z,99490
2017-01-10T03:46:14.397Z,99486
2017-01-10T03:47:14.387Z,99483
2017-01-10T03:48:14.444Z,99475
2017-01-10T03:49:15.048Z,99469
2017-01-10T03:50:14.488Z,99479
2017-01-10T03:51:14.574Z,99477
2017-01-10T03:52:15.120Z,99474
2017-01-10T03:53:15.227Z,99470
2017-01-10T03:54:14.790Z,99470
2017-01-10T03:55:15.328Z,99462
2017-01-10T03:56:14.766Z,99462
2017-01-10T03:57:14.844Z,99460
2017-01-10T03:58:15.426Z,99453
2017-01-10T03:59:14.876Z,99458
2017-01-10T04:00:14.967Z,99451
2017-01-10T04:01:15.544Z,99448
2017-01-10T04:02:15.629Z,99451
2017-01-10T04:03:15.100Z,99448
2017-01-10T04:04:15.172Z,99445
2017-01-10T04:05:15.718Z,99447
2017-01-10T04:06:15.695Z,99446
2017-01-10T04:07:15.336Z,99445
2017-01-10T04:08:16.511Z,99443
2017-01-10T04:09:15.349Z,99438
2017-01-10T04:10:15.432Z,99439
2017-01-10T04:11:15.581Z,99438
2017-01-10T04:12:16.146Z,99435
2017-01-10T04:13:15.709Z,99440
2017-01-10T04:14:16.236Z,99436
2017-01-10T04:15:16.328Z,99440
2017-01-10T04:16:16.445Z,99435
2017-01-10T04:17:16.451Z,99433
2017-01-10T04:18:15.970Z,99434
2017-01-10T04:19:15.983Z,99436
2017-01-10T04:20:16.075Z,99434
2017-01-10T04:21:16.639Z,99436
2017-01-10T04:22:16.682Z,99437
2017-01-10T04:23:16.207Z,99440
2017-01-10T04:24:16.244Z,99437
2017-01-10T04:25:16.241Z,99436
2017-01-10T04:26:16.229Z,99431
2017-01-10T04:27:16.791Z,99439
2017-01-10T04:28:16.935Z,99434
2017-01-10T04:29:16.356Z,99438
2017-01-10T04:30:16.952Z,99435
2017-01-10T04:31:16.556Z,99433
2017-01-10T04:32:17.133Z,99434
2017-01-10T04:33:16.652Z,99427
2017-01-10T04:34:16.740Z,99430
2017-01-10T04:35:17.893Z,99434
2017-01-10T04:36:16.793Z,99432
2017-01-10T04:37:17.460Z,99435
2017-01-10T04:38:17.400Z,99433
2017-01-10T04:39:16.895Z,99431
2017-01-10T04:40:16.934Z,99427
2017-01-10T04:41:17.536Z,99427
2017-01-10T04:42:17.117Z,99432
2017-01-10T04:43:17.659Z,99436
2017-01-10T04:44:17.755Z,99434
2017-01-10T04:45:17.251Z,99434
2017-01-10T04:46:17.886Z,99428
2017-01-10T04:47:17.344Z,99426
2017-01-10T04:48:17.951Z,99424
2017-01-10T04:49:17.979Z,99417
2017-01-10T04:50:17.517Z,99414
2017-01-10T04:51:17.616Z,99422
2017-01-10T04:52:18.137Z,99424
2017-01-10T04:53:17.701Z,99417
2017-01-10T04:54:17.716Z,99417
2017-01-10T04:55:18.353Z,99420
2017-01-10T04:56:18.369Z,99419
2017-01-10T04:57:18.461Z,99424
2017-01-10T04:58:18.007Z,99418
2017-01-10T04:59:18.552Z,99410
2017-01-10T05:00:18.654Z,99416
2017-01-10T05:01:18.665Z,99413
2017-01-10T05:02:18.733Z,99413
2017-01-10T05:03:18.786Z,99412
2017-01-10T05:04:18.825Z,99416
2017-01-10T05:05:18.374Z,99412
2017-01-10T05:06:19.033Z,99414
2017-01-10T05:07:18.521Z,99417
2017-01-10T05:08:18.507Z,99413
2017-01-10T05:09:19.112Z,99415
2017-01-10T05:10:20.341Z,99417
2017-01-10T05:11:20.887Z,99416
2017-01-10T05:12:19.810Z,99416
2017-01-10T05:13:18.818Z,99418
2017-01-10T05:14:18.961Z,99414
2017-01-10T05:15:18.912Z,99413
2017-01-10T05:16:19.479Z,99414
2017-01-10T05:17:19.090Z,99417
2017-01-10T05:18:19.124Z,99411
2017-01-10T05:19:19.718Z,99412
2017-01-10T05:20:19.731Z,99416
2017-01-10T05:21:19.763Z,99412
2017-01-10T05:22:19.308Z,99416
2017-01-10T05:23:19.899Z,99417
2017-01-10T05:24:19.402Z,99415
2017-01-10T05:25:19.464Z,99419
2017-01-10T05:26:20.263Z,99425
2017-01-10T05:27:19.963Z,99415
2017-01-10T05:28:20.067Z,99426
2017-01-10T05:29:20.127Z,99415
2017-01-10T05:30:19.616Z,99415
2017-01-10T05:31:21.485Z,99424
2017-01-10T05:32:19.765Z,99425
2017-01-10T05:33:20.252Z,99420
2017-01-10T05:34:19.791Z,99421
2017-01-10T05:35:19.781Z,99412
2017-01-10T05:36:20.375Z,99420
2017-01-10T05:37:19.831Z,99423
2017-01-10T05:38:20.386Z,99423
2017-01-10T05:39:19.905Z,99417
2017-01-10T05:40:19.920Z,99423
2017-01-10T05:41:20.475Z,99421
2017-01-10T05:42:20.553Z,99419
2017-01-10T05:43:20.056Z,99418
2017-01-10T05:44:20.680Z,99422
2017-01-10T05:45:20.669Z,99419
2017-01-10T05:46:20.831Z,99420
2017-01-10T05:47:20.309Z,99422
2017-01-10T05:48:20.888Z,99418
2017-01-10T05:49:20.967Z,99419
2017-01-10T05:50:21.022Z,99424
2017-01-10T05:51:20.554Z,99423
2017-01-10T05:52:20.579Z,99427
2017-01-10T05:53:20.679Z,99426
2017-01-10T05:54:20.793Z,99426
2017-01-10T05:55:20.982Z,99428
2017-01-10T05:56:21.000Z,99430
2017-01-10T05:57:20.975Z,99431
2017-01-10T05:58:20.956Z,99431
2017-01-10T05:59:21.579Z,99432
2017-01-10T06:00:21.065Z,99436
2017-01-10T06:01:21.650Z,99444
2017-01-10T06:02:21.708Z,99446
2017-01-10T06:03:21.218Z,99444
2017-01-10T06:04:21.794Z,99440
2017-01-10T06:05:21.434Z,99441
2017-01-10T06:06:21.361Z,99439
2017-01-10T06:07:21.941Z,99441
2017-01-10T06:08:21.980Z,99443
2017-01-10T06:09:21.474Z,99427
2017-01-10T06:10:21.618Z,99437
2017-01-10T06:11:22.284Z,99439
2017-01-10T06:12:21.836Z,99440
2017-01-10T06:13:22.551Z,99428
2017-01-10T06:14:21.958Z,99442
2017-01-10T06:15:22.464Z,99438
2017-01-10T06:16:22.432Z,99435
2017-01-10T06:17:22.458Z,99431
2017-01-10T06:18:22.003Z,99437
2017-01-10T06:19:22.516Z,99435
2017-01-10T06:20:22.720Z,99441
2017-01-10T06:21:22.595Z,99442
2017-01-10T06:22:22.632Z,99443
2017-01-10T06:23:22.767Z,99434
2017-01-10T06:24:22.796Z,99438
2017-01-10T06:25:23.013Z,99435
2017-01-10T06:26:22.378Z,99432
2017-01-10T06:27:22.621Z,99439
2017-01-10T06:28:22.932Z,99442
2017-01-10T06:29:23.123Z,99438
2017-01-10T06:30:22.577Z,99446
2017-01-10T06:31:23.129Z,99442
2017-01-10T06:32:22.636Z,99445
2017-01-10T06:33:23.337Z,99452
2017-01-10T06:34:22.822Z,99450
2017-01-10T06:35:22.675Z,99451
2017-01-10T06:36:22.743Z,99448
2017-01-10T06:37:23.875Z,99454
2017-01-10T06:38:22.908Z,99449
2017-01-10T06:39:23.369Z,99450
2017-01-10T06:40:22.922Z,99442
2017-01-10T06:41:22.940Z,99454
2017-01-10T06:42:23.415Z,99454
2017-01-10T06:43:23.029Z,99456
2017-01-10T06:44:23.019Z,99453
2017-01-10T06:45:23.107Z,99455
2017-01-10T06:46:23.275Z,99457
2017-01-10T06:47:23.797Z,99457
2017-01-10T06:48:23.812Z,99454
2017-01-10T06:49:23.310Z,99460
2017-01-10T06:50:23.860Z,99458
2017-01-10T06:51:23.362Z,99459
2017-01-10T06:52:23.962Z,99460
2017-01-10T06:53:24.024Z,99452
2017-01-10T06:54:24.030Z,99459
2017-01-10T06:55:24.208Z,99461
2017-01-10T06:56:23.736Z,99460
2017-01-10T06:57:24.238Z,99461
2017-01-10T06:58:24.445Z,99460
2017-01-10T06:59:23.901Z,99468
2017-01-10T07:00:23.992Z,99458
2017-01-10T07:01:23.997Z,99456
2017-01-10T07:02:24.695Z,99459
2017-01-10T07:03:24.185Z,99470
2017-01-10T07:04:24.836Z,99465
2017-01-10T07:05:24.799Z,99466
2017-01-10T07:06:24.291Z,99470
2017-01-10T07:07:24.293Z,99467
2017-01-10T07:08:24.398Z,99455
2017-01-10T07:09:24.897Z,99468
2017-01-10T07:10:24.424Z,99465
2017-01-10T07:11:24.494Z,99465
2017-01-10T07:12:25.110Z,99468
2017-01-10T07:13:24.610Z,99459
2017-01-10T07:14:24.636Z,99462
2017-01-10T07:15:24.684Z,99463
2017-01-10T07:16:24.763Z,99460
2017-01-10T07:17:24.843Z,99473
2017-01-10T07:18:24.836Z,99469
2017-01-10T07:19:25.461Z,99468
2017-01-10T07:20:24.985Z,99474
2017-01-10T07:21:25.484Z,99473
2017-01-10T07:22:25.543Z,99490
2017-01-10T07:23:25.039Z,99480
2017-01-10T07:24:25.590Z,99476
2017-01-10T07:25:25.698Z,99486
2017-01-10T07:26:25.747Z,99486
2017-01-10T07:27:25.280Z,99499
2017-01-10T07:28:25.794Z,99496
2017-01-10T07:29:25.876Z,99496
2017-01-10T07:30:25.342Z,99500
2017-01-10T07:31:25.906Z,99505
2017-01-10T07:32:25.466Z,99499
2017-01-10T07:33:25.508Z,99494
2017-01-10T07:34:26.071Z,99505
2017-01-10T07:35:26.777Z,99501
2017-01-10T07:36:25.632Z,99509
2017-01-10T07:37:26.313Z,99510
2017-01-10T07:38:26.406Z,99494
2017-01-10T07:39:26.391Z,99498
2017-01-10T07:40:26.062Z,99500
2017-01-10T07:41:30.923Z,99499
2017-01-10T07:42:36.131Z,99501
2017-01-10T07:43:28.246Z,99491
2017-01-10T07:44:26.142Z,99503
2017-01-10T07:45:26.824Z,99498
2017-01-10T07:46:26.745Z,99509
2017-01-10T07:47:27.431Z,99495
2017-01-10T07:48:26.365Z,99509
2017-01-10T07:49:26.386Z,99511
2017-01-10T07:50:26.413Z,99479
2017-01-10T07:51:26.966Z,99511
2017-01-10T07:52:26.437Z,99510
2017-01-10T07:53:26.516Z,99511
2017-01-10T07:54:27.125Z,99513
2017-01-10T07:55:26.653Z,99513
2017-01-10T07:56:27.272Z,99512
2017-01-10T07:57:26.797Z,99515
2017-01-10T07:58:27.409Z,99520
2017-01-10T07:59:27.437Z,99516
2017-01-10T08:00:26.917Z,99513
2017-01-10T08:01:26.919Z,99517
2017-01-10T08:02:26.945Z,99521
2017-01-10T08:03:27.001Z,99514
2017-01-10T08:04:27.047Z,99527
2017-01-10T08:05:27.187Z,99524
2017-01-10T08:06:27.213Z,99519
2017-01-10T08:07:27.750Z,99524
2017-01-10T08:08:27.256Z,99525
2017-01-10T08:09:27.820Z,99523
2017-01-10T08:10:27.811Z,99522
2017-01-10T08:11:27.361Z,99527
2017-01-10T08:12:28.090Z,99526
2017-01-10T08:13:27.471Z,99530
2017-01-10T08:14:28.097Z,99526
2017-01-10T08:15:28.652Z,99529
2017-01-10T08:16:27.643Z,99532
2017-01-10T08:17:27.738Z,99526
2017-01-10T08:18:27.808Z,99527
2017-01-10T08:19:27.862Z,99526
2017-01-10T08:20:27.864Z,99533
2017-01-10T08:21:28.445Z,99527
2017-01-10T08:22:27.931Z,99534
2017-01-10T08:23:28.556Z,99535
2017-01-10T08:24:27.992Z,99538
2017-01-10T08:25:28.648Z,99537
2017-01-10T08:26:28.627Z,99534
2017-01-10T08:27:28.137Z,99538
2017-01-10T08:28:28.687Z,99539
2017-01-10T08:29:28.277Z,99536
2017-01-10T08:30:29.286Z,99539
2017-01-10T08:31:28.844Z,99551
2017-01-10T08:32:28.902Z,99554
2017-01-10T08:33:28.427Z,99555
2017-01-10T08:34:28.429Z,99556
2017-01-10T08:35:29.033Z,99549
2017-01-10T08:36:29.120Z,99552
2017-01-10T08:37:29.175Z,99556
2017-01-10T08:38:28.709Z,99559
2017-01-10T08:39:29.199Z,99561
2017-01-10T08:40:28.733Z,99567
2017-01-10T08:41:28.729Z,99560
2017-01-10T08:42:29.805Z,99563
2017-01-10T08:43:29.371Z,99566
2017-01-10T08:44:29.512Z,99563
2017-01-10T08:45:28.961Z,99565
2017-01-10T08:46:29.582Z,99567
2017-01-10T08:47:29.646Z,99567
2017-01-10T08:48:29.169Z,99561
2017-01-10T08:49:29.742Z,99559
2017-01-10T08:50:30.447Z,99566
2017-01-10T08:51:29.836Z,99561
2017-01-10T08:52:30.657Z,99562
2017-01-10T08:53:30.008Z,99563
2017-01-10T08:54:29.975Z,99566
2017-01-10T08:55:30.078Z,99563
2017-01-10T08:56:30.053Z,99559
2017-01-10T08:57:29.614Z,99568
2017-01-10T08:58:33.556Z,99566
2017-01-10T08:59:29.672Z,99566
2017-01-10T09:00:30.231Z,99569
2017-01-10T09:01:30.226Z,99563
2017-01-10T09:02:30.343Z,99568
2017-01-10T09:03:30.331Z,99568
2017-01-10T09:04:30.367Z,99521
2017-01-10T09:05:29.875Z,99570
2017-01-10T09:06:31.010Z,99570
2017-01-10T09:07:30.526Z,99568
2017-01-10T09:08:30.013Z,99568
2017-01-10T09:09:30.731Z,99570
2017-01-10T09:10:30.156Z,99576
2017-01-10T09:11:30.765Z,99584
2017-01-10T09:12:31.442Z,99588
2017-01-10T09:13:30.909Z,99587
2017-01-10T09:14:30.869Z,99582
2017-01-10T09:15:31.020Z,99588
2017-01-10T09:16:30.921Z,99595
2017-01-10T09:17:30.963Z,99591
2017-01-10T09:18:30.988Z,99590
2017-01-10T09:19:30.544Z,99590
2017-01-10T09:20:32.176Z,99594
2017-01-10T09:21:31.313Z,99592
2017-01-10T09:22:30.717Z,99597
2017-01-10T09:23:31.932Z,99602
2017-01-10T09:24:31.381Z,99598
2017-01-10T09:25:32.287Z,99597
2017-01-10T09:26:31.464Z,99595
2017-01-10T09:27:30.960Z,99598
2017-01-10T09:28:31.559Z,99600
2017-01-10T09:29:31.019Z,99603
2017-01-10T09:30:31.047Z,99604
2017-01-10T09:31:32.942Z,99606
2017-01-10T09:32:32.753Z,99600
2017-01-10T09:33:31.712Z,99609
2017-01-10T09:34:31.780Z,99611
2017-01-10T09:35:31.810Z,99607
2017-01-10T09:36:31.370Z,99601
2017-01-10T09:37:31.476Z,99610
2017-01-10T09:38:31.506Z,99609
2017-01-10T09:39:32.123Z,99615
2017-01-10T09:40:32.155Z,99607
2017-01-10T09:41:31.683Z,99616
2017-01-10T09:42:31.749Z,99615
2017-01-10T09:43:32.256Z,99615
2017-01-10T09:44:32.396Z,99612
2017-01-10T09:45:32.541Z,99608
2017-01-10T09:46:32.464Z,99615
2017-01-10T09:47:33.100Z,99616
2017-01-10T09:48:31.949Z,99615
2017-01-10T09:49:32.055Z,99616
2017-01-10T09:50:32.049Z,99615
2017-01-10T09:51:33.878Z,99611
2017-01-10T09:52:32.180Z,99627
2017-01-10T09:53:32.824Z,99622
2017-01-10T09:54:32.916Z,99621
2017-01-10T09:55:32.372Z,99627
2017-01-10T09:56:32.425Z,99623
2017-01-10T09:57:33.201Z,99629
2017-01-10T09:58:32.500Z,99628
2017-01-10T09:59:33.120Z,99628
2017-01-10T10:00:32.684Z,99626
2017-01-10T10:01:33.307Z,99631
2017-01-10T10:02:32.777Z,99629
2017-01-10T10:03:33.377Z,99626
2017-01-10T10:04:32.909Z,99633
2017-01-10T10:05:33.993Z,99633
2017-01-10T10:06:33.016Z,99635
2017-01-10T10:07:33.076Z,99641
2017-01-10T10:08:36.592Z,99632
2017-01-10T10:09:34.970Z,99635
2017-01-10T10:10:33.722Z,99632
2017-01-10T10:11:33.814Z,99636
2017-01-10T10:12:33.317Z,99635
2017-01-10T10:13:35.962Z,99634
2017-01-10T10:14:36.090Z,99636
2017-01-10T10:15:34.066Z,99637
2017-01-10T10:16:35.736Z,99638
2017-01-10T10:17:44.016Z,99633
2017-01-10T10:18:34.543Z,99634
2017-01-10T10:19:34.705Z,99637
2017-01-10T10:20:33.842Z,99630
2017-01-10T10:21:34.392Z,99635
2017-01-10T10:22:36.557Z,99635
2017-01-10T10:23:35.996Z,99638
2017-01-10T10:24:34.095Z,99633
2017-01-10T10:25:35.657Z,99637
2017-01-10T10:26:34.831Z,99632
2017-01-10T10:27:34.339Z,99636
2017-01-10T10:28:35.562Z,99630
2017-01-10T10:29:35.659Z,99631
2017-01-10T10:30:35.743Z,99632
2017-01-10T10:31:34.650Z,99632
2017-01-10T10:32:34.608Z,99626
2017-01-10T10:33:34.708Z,99620
2017-01-10T10:34:35.469Z,99630
2017-01-10T10:35:35.356Z,99631
2017-01-10T10:36:34.879Z,99629
2017-01-10T10:37:35.450Z,99627
2017-01-10T10:38:35.050Z,99623
2017-01-10T10:39:35.656Z,99626
2017-01-10T10:40:36.378Z,99629
2017-01-10T10:41:37.448Z,99622
2017-01-10T10:42:35.308Z,99624
2017-01-10T10:43:35.878Z,99630
2017-01-10T10:44:35.955Z,99620
2017-01-10T10:45:35.899Z,99619
2017-01-10T10:46:35.453Z,99626
2017-01-10T10:47:36.071Z,99621
2017-01-10T10:48:35.604Z,99629
2017-01-10T10:49:36.311Z,99631
2017-01-10T10:50:35.744Z,99634
2017-01-10T10:51:36.998Z,99632
2017-01-10T10:52:39.685Z,99625
2017-01-10T10:53:38.772Z,99628
2017-01-10T10:54:41.078Z,99629
2017-01-10T10:55:38.688Z,99634
2017-01-10T10:56:37.269Z,99631
2017-01-10T10:57:37.661Z,99631
2017-01-10T10:58:36.629Z,99638
2017-01-10T10:59:38.047Z,99624
2017-01-10T11:00:38.381Z,99629
2017-01-10T11:01:36.282Z,99633
2017-01-10T11:02:36.908Z,99637
2017-01-10T11:03:37.705Z,99637
2017-01-10T11:04:38.393Z,99642
2017-01-10T11:05:40.404Z,99634
2017-01-10T11:06:37.357Z,99636
2017-01-10T11:07:37.303Z,99636
2017-01-10T11:08:37.132Z,99627
2017-01-10T11:09:36.553Z,99625
2017-01-10T11:10:39.394Z,99635
2017-01-10T11:11:38.563Z,99621
2017-01-10T11:12:39.835Z,99635
2017-01-10T11:13:37.328Z,99633
2017-01-10T11:14:38.525Z,99629
2017-01-10T11:15:39.410Z,99627
2017-01-10T11:16:38.015Z,99625
2017-01-10T11:17:37.811Z,99627
2017-01-10T11:18:39.477Z,99628
2017-01-10T11:19:39.029Z,99630
2017-01-10T11:20:40.274Z,99633
2017-01-10T11:21:38.243Z,99631
2017-01-10T11:22:37.126Z,99627
2017-01-10T11:23:37.707Z,99620
2017-01-10T11:24:37.818Z,99621
2017-01-10T11:25:39.825Z,99621
2017-01-10T11:26:38.450Z,99618
2017-01-10T11:27:37.309Z,99624
2017-01-10T11:28:40.544Z,99623
2017-01-10T11:29:40.690Z,99625
2017-01-10T11:30:40.203Z,99621
2017-01-10T11:31:38.031Z,99621
2017-01-10T11:32:41.614Z,99621
2017-01-10T11:33:40.082Z,99622
2017-01-10T11:34:40.887Z,99620
2017-01-10T11:35:39.513Z,99620
2017-01-10T11:36:40.462Z,99614
2017-01-10T11:37:38.247Z,99622
2017-01-10T11:38:41.693Z,99618
2017-01-10T11:39:42.788Z,99611
2017-01-10T11:40:40.190Z,99607
2017-01-10T11:41:40.749Z,99610
2017-01-10T11:42:39.664Z,99608
2017-01-10T11:43:40.381Z,99612
2017-01-10T11:44:39.889Z,99602
2017-01-10T11:45:38.026Z,99609
2017-01-10T11:46:42.297Z,99610
2017-01-10T11:47:44.145Z,99607
2017-01-10T11:48:41.044Z,99608
2017-01-10T11:49:38.225Z,99608
2017-01-10T11:50:39.057Z,99614
2017-01-10T11:51:39.049Z,99614
2017-01-10T11:52:38.338Z,99612
2017-01-10T11:53:39.652Z,99606
2017-01-10T11:54:38.484Z,99609
2017-01-10T11:55:39.545Z,99616
2017-01-10T11:56:38.474Z,99614
2017-01-10T11:57:39.082Z,99609
2017-01-10T11:58:41.574Z,99614
2017-01-10T11:59:42.589Z,99612
2017-01-10T12:00:40.682Z,99615
2017-01-10T12:01:38.769Z,99612
2017-01-10T12:02:41.385Z,99612
2017-01-10T12:03:44.574Z,99609
2017-01-10T12:04:40.706Z,99608
2017-01-10T12:05:38.845Z,99603
2017-01-10T12:06:41.448Z,99609
2017-01-10T12:07:41.833Z,99614
2017-01-10T12:08:40.211Z,99608
2017-01-10T12:09:39.591Z,99616
2017-01-10T12:10:40.802Z,99621
2017-01-10T12:11:39.723Z,99621
2017-01-10T12:12:40.998Z,99617
2017-01-10T12:13:41.264Z,99616
2017-01-10T12:14:41.112Z,99623
2017-01-10T12:15:39.966Z,99621
2017-01-10T12:16:39.444Z,99617
2017-01-10T12:17:40.484Z,99611
2017-01-10T12:18:40.093Z,99618
2017-01-10T12:19:40.652Z,99618
2017-01-10T12:20:40.177Z,99610
2017-01-10T12:21:39.652Z,99617
2017-01-10T12:22:40.302Z,99620
2017-01-10T12:23:40.331Z,99619
2017-01-10T12:24:39.753Z,99619
2017-01-10T12:25:40.414Z,99616
2017-01-10T12:26:41.184Z,99618
2017-01-10T12:27:40.003Z,99619
2017-01-10T12:28:40.006Z,99613
2017-01-10T12:29:40.628Z,99619
2017-01-10T12:30:40.133Z,99620
2017-01-10T12:31:41.361Z,99619
2017-01-10T12:32:40.713Z,99617
2017-01-10T12:33:40.305Z,99626
2017-01-10T12:34:42.309Z,99627
2017-01-10T12:35:42.099Z,99630
2017-01-10T12:36:42.707Z,99630
2017-01-10T12:37:41.896Z,99635
2017-01-10T12:38:41.922Z,99633
2017-01-10T12:39:41.839Z,99629
2017-01-10T12:40:42.215Z,99639
2017-01-10T12:41:41.282Z,99639
2017-01-10T12:42:42.419Z,99638
2017-01-10T12:43:40.823Z,99639
2017-01-10T12:44:45.072Z,99636
2017-01-10T12:45:40.923Z,99624
2017-01-10T12:46:42.298Z,99636
2017-01-10T12:47:42.942Z,99637
2017-01-10T12:48:43.791Z,99634
2017-01-10T12:49:46.670Z,99637
2017-01-10T12:50:45.791Z,99641
2017-01-10T12:51:43.948Z,99631
2017-01-10T12:52:57.889Z,99643
2017-01-10T12:53:51.474Z,99641
2017-01-10T12:54:44.224Z,99639
2017-01-10T12:55:41.944Z,99627
2017-01-10T12:56:42.680Z,99639
2017-01-10T12:57:42.963Z,99640
2017-01-10T12:58:43.496Z,99650
2017-01-10T12:59:45.457Z,99645
2017-01-10T13:00:41.659Z,99652
2017-01-10T13:01:42.928Z,99654